Time;durP1;ratioP1;P1;durP2;ratioP2;P2;SDS_P1;SDS_P2;PMS_P1;PMS_P2;Temp;Humidity;BMP_temperature;BMP_pressure;BME280_temperature;BME280_humidity;BME280_pressure;Samples;Min_cycle;Max_cycle;Signal;HPM_P1;HPM_P2
2023/06/07 00:00:56;;;;;;;15.57;8.25;;;10.10;99.90;;;;;;4998827;28;90727;-34
2023/06/07 00:03:22;;;;;;;9.85;6.97;;;10.10;99.90;;;;;;4998202;28;91178;-34
2023/06/07 00:05:48;;;;;;;16.48;7.38;;;10.20;99.90;;;;;;4999859;28;89621;-33
2023/06/07 00:08:13;;;;;;;15.70;9.13;;;10.20;99.90;;;;;;4998631;28;90000;-33
2023/06/07 00:10:39;;;;;;;8.15;6.30;;;10.10;99.90;;;;;;4999162;28;89817;-36
2023/06/07 00:13:05;;;;;;;13.50;7.13;;;10.00;99.90;;;;;;4998973;28;89655;-32
2023/06/07 00:15:30;;;;;;;14.90;7.80;;;10.00;99.90;;;;;;4998773;28;89023;-31
2023/06/07 00:18:00;;;;;;;16.08;7.90;;;10.00;99.90;;;;;;4999525;28;90728;-31
2023/06/07 00:20:30;;;;;;;8.68;6.82;;;10.00;99.90;;;;;;4999997;28;90312;-35
2023/06/07 00:22:55;;;;;;;10.25;6.32;;;9.90;99.90;;;;;;4999026;28;89603;-32
2023/06/07 00:25:22;;;;;;;11.13;7.82;;;9.90;99.90;;;;;;4997416;28;90158;-33
2023/06/07 00:27:48;;;;;;;11.98;6.47;;;9.90;99.90;;;;;;4998149;28;89984;-34
2023/06/07 00:30:14;;;;;;;12.80;6.60;;;9.80;99.90;;;;;;4999372;28;89746;-32
2023/06/07 00:32:40;;;;;;;9.68;7.03;;;9.80;99.90;;;;;;4997374;28;89427;-34
2023/06/07 00:35:07;;;;;;;9.18;6.70;;;9.70;99.90;;;;;;4999354;28;90208;-31
2023/06/07 00:37:33;;;;;;;10.82;7.63;;;9.70;99.90;;;;;;4998832;28;90113;-31
2023/06/07 00:39:59;;;;;;;10.45;6.78;;;9.70;99.90;;;;;;4998542;28;89435;-35
2023/06/07 00:42:24;;;;;;;9.27;7.55;;;9.70;99.90;;;;;;4998901;28;90425;-31
2023/06/07 00:44:50;;;;;;;11.55;7.18;;;9.60;99.90;;;;;;4997665;28;88707;-32
2023/06/07 00:47:16;;;;;;;11.98;6.90;;;9.60;99.90;;;;;;4998123;28;89762;-32
2023/06/07 00:49:46;;;;;;;12.80;7.70;;;9.50;99.90;;;;;;4998150;28;90260;-31
2023/06/07 00:52:12;;;;;;;14.68;8.13;;;9.60;99.90;;;;;;4998517;28;90399;-35
2023/06/07 00:54:38;;;;;;;19.05;7.05;;;9.60;99.90;;;;;;4999034;28;88001;-33
2023/06/07 00:57:05;;;;;;;10.48;6.72;;;9.60;99.90;;;;;;4998694;28;91181;-33
2023/06/07 00:59:31;;;;;;;10.88;7.45;;;9.50;99.90;;;;;;4996976;28;89669;-33
2023/06/07 01:01:57;;;;;;;13.55;6.53;;;9.50;99.90;;;;;;4997599;28;89875;-32
2023/06/07 01:04:24;;;;;;;10.75;6.45;;;9.50;99.90;;;;;;4998587;28;87528;-33
2023/06/07 01:06:52;;;;;;;9.40;6.45;;;9.50;99.90;;;;;;4998496;28;90408;-33
2023/06/07 01:09:18;;;;;;;18.55;8.90;;;9.50;99.90;;;;;;4997949;28;89333;-33
2023/06/07 01:11:47;;;;;;;20.58;9.98;;;9.50;99.90;;;;;;4997997;28;89582;-32
2023/06/07 01:14:14;;;;;;;11.48;7.90;;;9.50;99.90;;;;;;4997243;28;90003;-36
2023/06/07 01:16:43;;;;;;;12.07;6.72;;;9.50;99.90;;;;;;4998655;28;90224;-32
2023/06/07 01:19:11;;;;;;;;;;;9.50;99.90;;;;;;4999279;28;90407;-33
2023/06/07 01:21:38;;;;;;;10.82;7.60;;;9.50;99.90;;;;;;4999576;28;89227;-32
2023/06/07 01:24:04;;;;;;;12.82;8.13;;;9.50;99.90;;;;;;4998206;28;88127;-33
2023/06/07 01:26:30;;;;;;;10.23;7.05;;;9.50;99.90;;;;;;4997410;28;89643;-32
2023/06/07 01:29:06;;;;;;;14.02;6.97;;;9.50;99.90;;;;;;4998087;28;89941;-35
2023/06/07 01:31:35;;;;;;;10.82;6.80;;;9.40;99.90;;;;;;4998848;28;90168;-32
2023/06/07 01:34:03;;;;;;;11.50;6.03;;;9.50;99.90;;;;;;4998239;28;89742;-32
2023/06/07 01:36:31;;;;;;;9.20;7.43;;;9.40;99.90;;;;;;4998064;28;90533;-36
2023/06/07 01:38:59;;;;;;;18.48;7.75;;;9.40;99.90;;;;;;4999300;28;90363;-31
2023/06/07 01:41:27;;;;;;;12.98;8.25;;;9.40;99.90;;;;;;5001461;28;89919;-31
2023/06/07 01:43:53;;;;;;;11.63;7.05;;;9.30;99.90;;;;;;5001310;28;88526;-34
2023/06/07 01:46:19;;;;;;;22.40;9.90;;;9.40;99.90;;;;;;5001743;28;90928;-35
2023/06/07 01:48:45;;;;;;;9.57;7.63;;;9.40;99.90;;;;;;5001334;28;90544;-34
2023/06/07 01:51:11;;;;;;;23.38;8.75;;;9.40;99.90;;;;;;5000381;28;89331;-33
2023/06/07 01:53:37;;;;;;;22.60;10.13;;;9.40;99.90;;;;;;5001568;28;88097;-35
2023/06/07 01:56:21;;;;;;;15.18;9.60;;;9.40;99.90;;;;;;5000611;28;90248;-33
2023/06/07 01:59:16;;;;;;;11.85;8.05;;;9.40;99.90;;;;;;5000798;28;88629;-33
2023/06/07 02:02:12;;;;;;;9.27;7.10;;;9.30;99.90;;;;;;5001238;28;89319;-32
2023/06/07 02:04:49;;;;;;;18.27;7.75;;;9.30;99.90;;;;;;4996116;28;90065;-34
2023/06/07 02:07:22;;;;;;;12.52;7.28;;;9.30;99.90;;;;;;5000670;28;90641;-31
2023/06/07 02:09:49;;;;;;;11.10;7.20;;;9.20;99.90;;;;;;5000692;28;91686;-30
2023/06/07 02:12:15;;;;;;;15.45;7.53;;;9.30;99.90;;;;;;5000220;28;88655;-33
2023/06/07 02:14:42;;;;;;;16.67;7.40;;;9.30;99.90;;;;;;5001448;28;88590;-34
2023/06/07 02:17:09;;;;;;;11.13;8.82;;;9.30;99.90;;;;;;5001105;28;90014;-35
2023/06/07 02:19:35;;;;;;;18.48;9.73;;;9.20;99.90;;;;;;5000206;28;90069;-33
2023/06/07 02:22:01;;;;;;;17.40;9.18;;;9.20;99.90;;;;;;5001628;28;89792;-32
2023/06/07 02:24:27;;;;;;;10.63;7.88;;;9.30;99.90;;;;;;5000338;28;88735;-33
2023/06/07 02:26:56;;;;;;;14.07;8.50;;;9.30;99.90;;;;;;5000724;28;90141;-30
2023/06/07 02:29:22;;;;;;;16.70;7.82;;;9.20;99.90;;;;;;4999379;28;91025;-32
2023/06/07 02:31:48;;;;;;;12.93;7.38;;;9.20;99.90;;;;;;5000725;28;89965;-32
2023/06/07 02:34:14;;;;;;;14.57;8.80;;;9.20;99.90;;;;;;4999898;28;87960;-34
2023/06/07 02:36:40;;;;;;;17.70;8.75;;;9.20;99.90;;;;;;5000671;28;90525;-32
2023/06/07 02:39:09;;;;;;;14.85;8.32;;;9.10;99.90;;;;;;5000326;28;89783;-33
2023/06/07 02:41:35;;;;;;;11.68;8.55;;;9.20;99.90;;;;;;5001255;28;91182;-32
2023/06/07 02:44:00;;;;;;;24.55;8.38;;;9.10;99.90;;;;;;5000016;28;89113;-32
2023/06/07 02:46:26;;;;;;;15.55;8.18;;;9.20;99.90;;;;;;5000345;28;90350;-35
2023/06/07 02:48:52;;;;;;;13.02;7.70;;;9.10;99.90;;;;;;4999132;28;89699;-32
2023/06/07 02:51:17;;;;;;;14.60;9.52;;;9.20;99.90;;;;;;5001170;28;89157;-32
2023/06/07 02:53:44;;;;;;;13.10;7.97;;;9.10;99.90;;;;;;4999928;28;88214;-31
2023/06/07 02:56:11;;;;;;;15.98;9.13;;;9.20;99.90;;;;;;4999971;28;90379;-33
2023/06/07 02:58:37;;;;;;;18.20;9.05;;;9.10;99.90;;;;;;5000093;28;89387;-32
2023/06/07 03:01:07;;;;;;;14.63;8.85;;;9.10;99.90;;;;;;5000546;28;89484;-32
2023/06/07 03:03:36;;;;;;;12.80;7.20;;;9.10;99.90;;;;;;5000026;28;89717;-31
2023/06/07 03:06:04;;;;;;;16.13;9.15;;;9.00;99.90;;;;;;5000200;28;91215;-33
2023/06/07 03:08:30;;;;;;;25.33;9.95;;;9.10;99.90;;;;;;4999327;28;88489;-31
2023/06/07 03:10:56;;;;;;;17.60;8.52;;;9.10;99.90;;;;;;5000580;28;89023;-32
2023/06/07 03:13:21;;;;;;;19.15;7.72;;;9.20;99.90;;;;;;4999706;28;88305;-32
2023/06/07 03:15:47;;;;;;;11.82;8.88;;;9.10;99.90;;;;;;5000618;28;91042;-32
2023/06/07 03:18:15;;;;;;;14.00;6.93;;;9.00;99.90;;;;;;4999802;28;90718;-30
2023/06/07 03:20:42;;;;;;;12.73;7.23;;;8.90;99.90;;;;;;5000042;28;90170;-32
2023/06/07 03:23:07;;;;;;;14.52;7.85;;;8.90;99.90;;;;;;4999332;28;89685;-33
2023/06/07 03:25:33;;;;;;;18.35;9.30;;;8.90;99.90;;;;;;4999619;28;90159;-34
2023/06/07 03:27:59;;;;;;;16.08;9.45;;;9.00;99.90;;;;;;4999404;28;89515;-34
2023/06/07 03:30:25;;;;;;;18.63;8.65;;;9.00;99.90;;;;;;5000045;28;89364;-33
2023/06/07 03:32:51;;;;;;;11.13;6.60;;;9.00;99.90;;;;;;4999366;28;89844;-35
2023/06/07 03:35:17;;;;;;;14.02;8.57;;;9.10;99.90;;;;;;4999718;28;90519;-36
2023/06/07 03:37:43;;;;;;;16.55;8.00;;;9.10;99.90;;;;;;4999684;28;89698;-32
2023/06/07 03:40:09;;;;;;;18.30;8.43;;;9.20;99.90;;;;;;4999399;28;89634;-32
2023/06/07 03:42:35;;;;;;;12.57;7.82;;;9.20;99.90;;;;;;4999045;28;90235;-33
2023/06/07 03:45:00;;;;;;;25.58;8.77;;;9.30;99.90;;;;;;5000051;28;91277;-31
2023/06/07 03:47:26;;;;;;;11.93;7.72;;;9.30;99.90;;;;;;4998717;28;89723;-34
2023/06/07 03:49:52;;;;;;;14.25;7.95;;;9.40;99.90;;;;;;4999795;28;89185;-31
2023/06/07 03:52:17;;;;;;;14.73;8.60;;;9.50;99.90;;;;;;4999419;28;87906;-33
2023/06/07 03:54:43;;;;;;;10.38;6.63;;;9.50;99.90;;;;;;4999422;28;90775;-34
2023/06/07 03:57:08;;;;;;;12.07;7.30;;;9.60;99.90;;;;;;4999292;28;90054;-32
2023/06/07 03:59:34;;;;;;;10.27;7.40;;;9.70;99.90;;;;;;4999458;28;89122;-33
2023/06/07 04:02:00;;;;;;;16.80;6.63;;;9.70;99.90;;;;;;4999073;28;89715;-33
2023/06/07 04:04:27;;;;;;;11.57;7.85;;;9.80;99.90;;;;;;4998932;28;90451;-31
2023/06/07 04:06:54;;;;;;;12.75;6.60;;;9.80;99.90;;;;;;4998776;28;90350;-36
2023/06/07 04:09:20;;;;;;;21.05;7.65;;;9.80;99.90;;;;;;4999281;28;89706;-31
2023/06/07 04:11:46;;;;;;;19.08;8.25;;;9.80;99.90;;;;;;4998463;28;89111;-31
2023/06/07 04:14:12;;;;;;;13.90;8.07;;;9.80;99.90;;;;;;4998995;28;90465;-33
2023/06/07 04:16:38;;;;;;;7.85;6.05;;;9.90;99.90;;;;;;4998836;28;90186;-33
2023/06/07 04:19:03;;;;;;;9.02;5.57;;;10.00;99.90;;;;;;4999064;28;88191;-36
2023/06/07 04:21:29;;;;;;;13.45;6.82;;;10.10;99.90;;;;;;4997507;28;88887;-30
2023/06/07 04:23:55;;;;;;;13.73;6.43;;;10.20;99.90;;;;;;4998963;28;89225;-33
2023/06/07 04:26:21;;;;;;;13.00;7.25;;;10.20;99.90;;;;;;5018527;22;89862;-30
2023/06/07 04:28:50;;;;;;;15.13;6.40;;;10.30;99.90;;;;;;4979636;28;90277;-31
2023/06/07 04:31:16;;;;;;;11.60;6.43;;;10.30;99.90;;;;;;4976939;28;89396;-32
2023/06/07 04:33:45;;;;;;;14.02;6.57;;;10.40;99.90;;;;;;4978799;28;90481;-35
2023/06/07 04:36:11;;;;;;;9.50;5.10;;;10.50;99.90;;;;;;4978520;28;90074;-36
2023/06/07 04:38:39;;;;;;;15.40;5.38;;;10.60;99.90;;;;;;4978885;28;89731;-33
2023/06/07 04:41:08;;;;;;;17.95;7.25;;;10.60;99.90;;;;;;4979293;28;89564;-34
2023/06/07 04:43:36;;;;;;;12.48;8.27;;;10.60;99.90;;;;;;4978641;28;89743;-34
2023/06/07 04:46:02;;;;;;;19.52;6.38;;;10.60;99.90;;;;;;4978551;28;90115;-32
2023/06/07 04:48:28;;;;;;;19.55;6.35;;;10.70;99.90;;;;;;4978978;28;89020;-33
2023/06/07 04:50:56;;;;;;;12.93;7.05;;;10.70;99.90;;;;;;4978846;28;88213;-33
2023/06/07 04:53:22;;;;;;;7.82;6.55;;;10.70;99.90;;;;;;4978165;28;90303;-34
2023/06/07 04:55:48;;;;;;;6.80;5.32;;;10.90;99.90;;;;;;4978676;28;90375;-31
2023/06/07 04:58:16;;;;;;;12.85;6.95;;;11.10;99.90;;;;;;4978043;28;90725;-34
2023/06/07 05:00:42;;;;;;;17.27;7.75;;;11.10;99.90;;;;;;4978945;28;89083;-33
2023/06/07 05:03:08;;;;;;;13.05;7.38;;;11.10;99.90;;;;;;4978017;28;91355;-32
2023/06/07 05:05:37;;;;;;;14.68;7.20;;;11.20;99.90;;;;;;4978394;28;89898;-34
2023/06/07 05:08:04;;;;;;;22.50;7.10;;;11.20;99.90;;;;;;4978109;28;89726;-34
2023/06/07 05:10:30;;;;;;;10.60;7.07;;;11.30;99.90;;;;;;4978030;28;87791;-33
2023/06/07 05:12:55;;;;;;;11.20;6.22;;;11.30;99.90;;;;;;4980868;28;90187;-34
2023/06/07 05:15:24;;;;;;;9.60;6.20;;;11.40;99.90;;;;;;4981198;28;89646;-34
2023/06/07 05:17:53;;;;;;;10.80;6.15;;;11.50;99.90;;;;;;4981340;28;89402;-32
2023/06/07 05:20:20;;;;;;;23.08;7.15;;;11.70;99.90;;;;;;4981039;28;89042;-32
2023/06/07 05:22:46;;;;;;;11.85;5.70;;;12.00;99.90;;;;;;4981573;28;89724;-32
2023/06/07 05:25:12;;;;;;;11.98;7.03;;;12.10;99.90;;;;;;4981090;28;90021;-31
2023/06/07 05:27:38;;;;;;;11.82;5.40;;;12.00;99.90;;;;;;4979485;28;90173;-36
2023/06/07 05:30:06;;;;;;;16.00;6.72;;;12.00;99.90;;;;;;4982074;28;87739;-31
2023/06/07 05:32:33;;;;;;;7.20;4.43;;;11.90;99.90;;;;;;4981039;28;90115;-31
2023/06/07 05:34:59;;;;;;;13.65;5.72;;;12.00;99.90;;;;;;4981335;28;90335;-31
2023/06/07 05:37:25;;;;;;;8.27;4.72;;;12.10;99.90;;;;;;4981491;28;89746;-31
2023/06/07 05:39:52;;;;;;;17.20;6.88;;;12.00;99.90;;;;;;4981618;28;88505;-35
2023/06/07 05:42:17;;;;;;;12.13;5.25;;;11.90;99.90;;;;;;4981034;28;90317;-32
2023/06/07 05:44:48;;;;;;;10.23;5.13;;;11.90;99.90;;;;;;4980633;28;90672;-30
2023/06/07 05:47:17;;;;;;;10.68;5.22;;;11.90;99.90;;;;;;4981223;28;90383;-35
2023/06/07 05:49:44;;;;;;;9.82;5.32;;;12.00;99.90;;;;;;4981781;28;90357;-31
2023/06/07 05:52:09;;;;;;;13.07;5.35;;;12.10;99.90;;;;;;4981206;28;90379;-31
2023/06/07 05:54:37;;;;;;;14.18;6.07;;;12.10;99.90;;;;;;4981503;28;89543;-31
2023/06/07 05:57:03;;;;;;;13.00;5.07;;;12.10;99.90;;;;;;4981527;28;90233;-31
2023/06/07 05:59:29;;;;;;;8.35;5.45;;;12.20;99.90;;;;;;4980735;28;89911;-31
2023/06/07 06:01:55;;;;;;;10.68;4.85;;;12.20;99.90;;;;;;4981736;28;90563;-36
2023/06/07 06:04:20;;;;;;;14.50;7.85;;;12.20;99.90;;;;;;4981163;28;89731;-32
2023/06/07 06:06:46;;;;;;;9.23;5.13;;;12.20;99.90;;;;;;4980631;28;90332;-30
2023/06/07 06:09:11;;;;;;;8.07;5.60;;;12.40;99.90;;;;;;4980476;28;88973;-33
2023/06/07 06:11:37;;;;;;;21.00;5.80;;;12.40;99.90;;;;;;4980600;28;90220;-31
2023/06/07 06:14:03;;;;;;;18.75;6.13;;;12.50;99.90;;;;;;4982846;28;89650;-35
2023/06/07 06:16:28;;;;;;;14.48;7.10;;;12.60;99.90;;;;;;4980904;28;89880;-32
2023/06/07 06:18:54;;;;;;;10.70;6.43;;;12.60;99.90;;;;;;4980806;28;90425;-36
2023/06/07 06:21:19;;;;;;;12.85;6.63;;;12.70;99.90;;;;;;4980213;28;90056;-31
2023/06/07 06:23:45;;;;;;;24.38;5.60;;;12.70;99.90;;;;;;4979485;28;89692;-33
2023/06/07 06:26:11;;;;;;;12.63;5.15;;;12.80;99.90;;;;;;4980494;28;89904;-35
2023/06/07 06:28:36;;;;;;;9.32;4.10;;;12.90;99.90;;;;;;4987688;28;89329;-34
2023/06/07 06:31:03;;;;;;;11.05;5.18;;;13.00;99.90;;;;;;4984225;28;90020;-36
2023/06/07 06:33:29;;;;;;;11.02;4.30;;;13.20;99.90;;;;;;4979973;28;90508;-31
2023/06/07 06:35:55;;;;;;;9.98;4.35;;;13.00;99.90;;;;;;4980415;28;90021;-33
2023/06/07 06:38:20;;;;;;;7.45;4.30;;;13.00;99.90;;;;;;4981160;28;89595;-34
2023/06/07 06:40:46;;;;;;;11.23;4.53;;;13.00;99.90;;;;;;4983753;28;89308;-33
2023/06/07 06:43:12;;;;;;;18.73;5.20;;;12.90;99.90;;;;;;4989424;28;90336;-34
2023/06/07 06:45:38;;;;;;;5.47;4.50;;;13.10;99.90;;;;;;4982403;28;90090;-32
2023/06/07 06:48:05;;;;;;;12.38;4.80;;;13.30;99.90;;;;;;4980073;28;89279;-31
2023/06/07 06:50:31;;;;;;;10.88;4.68;;;13.70;99.90;;;;;;4979126;28;90738;-31
2023/06/07 06:52:56;;;;;;;8.60;4.60;;;13.80;99.90;;;;;;4979031;28;89606;-32
2023/06/07 06:55:22;;;;;;;14.48;6.28;;;14.20;99.90;;;;;;4979100;28;89901;-35
2023/06/07 06:57:48;;;;;;;10.95;5.20;;;14.40;99.90;;;;;;4979831;28;90749;-31
2023/06/07 07:00:14;;;;;;;14.90;6.50;;;14.70;99.90;;;;;;4978214;28;90387;-31
2023/06/07 07:02:39;;;;;;;6.10;4.45;;;14.90;99.90;;;;;;4979564;28;88319;-35
2023/06/07 07:05:05;;;;;;;6.07;4.25;;;14.90;99.90;;;;;;4979685;28;89772;-32
2023/06/07 07:07:32;;;;;;;5.93;4.75;;;15.00;99.90;;;;;;4979965;28;89281;-35
2023/06/07 07:09:59;;;;;;;6.85;4.53;;;15.30;99.90;;;;;;4979310;28;90308;-32
2023/06/07 07:12:24;;;;;;;5.20;4.40;;;15.40;99.90;;;;;;4979296;28;89970;-35
2023/06/07 07:14:50;;;;;;;11.88;5.68;;;15.40;99.90;;;;;;4980527;28;89496;-32
2023/06/07 07:17:16;;;;;;;11.52;5.65;;;15.60;99.90;;;;;;4979782;28;87853;-31
2023/06/07 07:19:42;;;;;;;13.45;5.68;;;15.70;99.90;;;;;;4978769;28;90127;-32
2023/06/07 07:22:07;;;;;;;6.45;4.75;;;15.50;99.90;;;;;;4979553;28;90577;-33
2023/06/07 07:24:33;;;;;;;10.85;5.20;;;15.60;99.90;;;;;;4979625;28;89421;-34
2023/06/07 07:26:58;;;;;;;9.00;5.63;;;15.80;99.90;;;;;;4980146;28;90080;-32
2023/06/07 07:29:24;;;;;;;10.98;5.53;;;16.00;99.90;;;;;;4979047;28;90361;-31
2023/06/07 07:31:50;;;;;;;14.23;5.90;;;15.80;99.90;;;;;;4979445;28;89688;-36
2023/06/07 07:34:16;;;;;;;16.70;6.30;;;15.90;99.90;;;;;;4980003;28;89812;-31
2023/06/07 07:36:43;;;;;;;12.27;5.60;;;16.10;99.90;;;;;;4979650;28;89166;-30
2023/06/07 07:39:15;;;;;;;9.47;5.43;;;16.30;99.90;;;;;;4979739;28;89546;-32
2023/06/07 07:41:41;;;;;;;15.43;6.25;;;16.20;99.90;;;;;;4979900;28;89553;-30
2023/06/07 07:44:07;;;;;;;12.63;7.03;;;16.00;99.90;;;;;;4979411;28;89349;-33
2023/06/07 07:46:33;;;;;;;11.30;6.20;;;16.10;99.90;;;;;;4979386;28;90263;-33
2023/06/07 07:48:59;;;;;;;12.35;5.43;;;16.30;99.90;;;;;;4978545;28;90191;-35
2023/06/07 07:51:24;;;;;;;8.05;5.13;;;16.30;99.90;;;;;;4979830;28;89738;-31
2023/06/07 07:53:53;;;;;;;9.43;5.75;;;16.60;99.90;;;;;;4978749;28;89264;-31
2023/06/07 07:56:21;;;;;;;7.80;5.72;;;16.50;99.90;;;;;;4978750;28;87838;-32
2023/06/07 07:58:48;;;;;;;10.00;5.80;;;16.80;99.90;;;;;;4979075;28;90272;-35
2023/06/07 08:01:16;;;;;;;15.90;6.90;;;16.90;99.90;;;;;;4980032;28;89838;-31
2023/06/07 08:03:42;;;;;;;10.15;6.25;;;17.00;99.90;;;;;;4979548;28;89701;-33
2023/06/07 08:06:09;;;;;;;13.30;7.65;;;16.80;99.90;;;;;;4986108;28;89082;-35
2023/06/07 08:08:35;;;;;;;6.90;5.30;;;17.10;99.90;;;;;;4978616;28;90582;-34
2023/06/07 08:11:00;;;;;;;9.85;6.03;;;17.30;99.90;;;;;;4976789;28;91423;-34
2023/06/07 08:13:26;;;;;;;24.63;6.82;;;17.40;99.90;;;;;;4976969;28;90573;-33
2023/06/07 08:15:52;;;;;;;12.73;6.20;;;17.60;99.90;;;;;;4978612;28;89750;-32
2023/06/07 08:18:18;;;;;;;10.23;7.50;;;17.60;99.90;;;;;;4990316;28;90685;-30
2023/06/07 08:20:44;;;;;;;14.38;6.70;;;17.80;99.90;;;;;;4977520;28;88672;-30
2023/06/07 08:23:10;;;;;;;17.60;6.18;;;17.80;99.90;;;;;;4976464;28;89633;-33
2023/06/07 08:25:35;;;;;;;7.43;6.28;;;17.90;99.90;;;;;;4976356;28;89522;-35
2023/06/07 08:28:02;;;;;;;14.20;7.03;;;17.60;99.90;;;;;;4981906;28;91331;-33
2023/06/07 08:30:28;;;;;;;13.18;6.20;;;17.90;99.90;;;;;;4976249;28;90633;-32
2023/06/07 08:32:53;;;;;;;12.13;6.70;;;18.20;99.90;;;;;;4976348;28;88852;-32
2023/06/07 08:35:19;;;;;;;21.23;7.90;;;18.30;99.90;;;;;;4976201;28;89329;-34
2023/06/07 08:37:44;;;;;;;12.50;6.53;;;18.40;99.90;;;;;;4977268;28;89174;-32
2023/06/07 08:40:10;;;;;;;8.77;5.72;;;18.20;99.90;;;;;;4977252;28;91494;-32
2023/06/07 08:42:38;;;;;;;14.57;5.78;;;18.50;99.90;;;;;;4976425;28;88826;-32
2023/06/07 08:45:04;;;;;;;7.72;5.22;;;18.30;99.90;;;;;;4976490;28;88431;-33
2023/06/07 08:47:33;;;;;;;16.25;6.40;;;18.50;99.90;;;;;;4978180;28;90311;-32
2023/06/07 08:50:00;;;;;;;15.23;6.47;;;18.50;99.90;;;;;;4980237;28;89174;-33
2023/06/07 08:52:26;;;;;;;8.10;5.20;;;18.60;99.90;;;;;;4979934;28;88661;-30
2023/06/07 08:54:58;;;;;;;8.82;7.18;;;18.90;99.90;;;;;;4980568;28;88325;-33
2023/06/07 08:57:25;;;;;;;10.80;7.03;;;18.70;99.90;;;;;;4979426;28;90677;-32
2023/06/07 08:59:52;;;;;;;6.10;4.88;;;18.80;99.90;;;;;;4984745;28;90819;-35
2023/06/07 09:02:19;;;;;;;10.27;6.57;;;18.90;99.90;;;;;;4978941;28;91141;-35
2023/06/07 09:04:45;;;;;;;15.00;7.20;;;18.90;99.90;;;;;;4973935;28;88606;-35
2023/06/07 09:07:12;;;;;;;8.85;6.47;;;19.10;99.90;;;;;;4978749;28;90263;-36
2023/06/07 09:09:39;;;;;;;10.80;6.53;;;19.30;99.90;;;;;;4982166;28;89865;-32
2023/06/07 09:12:06;;;;;;;16.85;7.80;;;19.40;99.90;;;;;;4979148;28;89159;-32
2023/06/07 09:14:33;;;;;;;11.18;6.40;;;19.20;99.90;;;;;;4977305;28;90148;-34
2023/06/07 09:16:59;;;;;;;15.30;7.10;;;19.50;99.90;;;;;;4980003;28;91367;-35
2023/06/07 09:19:39;;;;;;;11.27;6.47;;;19.60;99.90;;;;;;4977404;28;91268;-34
2023/06/07 09:22:07;;;;;;;12.40;5.53;;;19.70;99.90;;;;;;4979569;28;89658;-32
2023/06/07 09:24:33;;;;;;;13.03;6.47;;;19.80;99.90;;;;;;4978030;28;88943;-36
2023/06/07 09:27:01;;;;;;;13.40;7.32;;;20.10;99.90;;;;;;4978931;28;92463;-32
2023/06/07 09:29:28;;;;;;;13.80;6.77;;;19.80;99.90;;;;;;4979564;28;89654;-32
2023/06/07 09:31:56;;;;;;;9.15;7.10;;;19.80;99.90;;;;;;4979297;28;89514;-31
2023/06/07 09:34:26;;;;;;;11.30;5.78;;;20.00;99.90;;;;;;4978750;28;88783;-34
2023/06/07 09:36:57;;;;;;;10.40;7.78;;;20.20;99.90;;;;;;4978752;28;89794;-33
2023/06/07 09:39:28;;;;;;;15.07;8.00;;;20.30;99.90;;;;;;4973181;28;89557;-35
2023/06/07 09:41:56;;;;;;;13.38;8.32;;;20.40;99.90;;;;;;4979455;28;89569;-30
2023/06/07 09:44:26;;;;;;;10.70;7.95;;;19.90;99.90;;;;;;4978127;28;88293;-32
2023/06/07 09:46:55;;;;;;;12.65;7.85;;;20.00;99.90;;;;;;4979131;28;89947;-33
2023/06/07 09:49:26;;;;;;;10.48;6.68;;;20.20;99.90;;;;;;4978155;28;90687;-33
2023/06/07 09:51:53;;;;;;;15.60;8.55;;;20.10;99.90;;;;;;4978468;28;89665;-32
2023/06/07 09:54:39;;;;;;;8.07;7.15;;;20.20;99.90;;;;;;4978174;28;89667;-34
2023/06/07 09:57:10;;;;;;;11.07;6.20;;;20.10;99.90;;;;;;4973391;28;89749;-34
2023/06/07 09:59:37;;;;;;;9.60;7.43;;;20.20;99.90;;;;;;4977878;28;88525;-32
2023/06/07 10:02:23;;;;;;;8.52;7.35;;;20.50;99.90;;;;;;4978845;28;89145;-35
2023/06/07 10:04:49;;;;;;;9.40;6.68;;;20.40;99.90;;;;;;4979277;28;88050;-33
2023/06/07 10:07:15;;;;;;;12.10;6.82;;;20.30;99.90;;;;;;4979120;28;90907;-34
2023/06/07 10:09:42;;;;;;;12.43;6.90;;;20.30;99.90;;;;;;4978124;28;89320;-33
2023/06/07 10:12:10;;;;;;;11.57;7.07;;;20.50;99.90;;;;;;4978913;28;89703;-31
2023/06/07 10:14:37;;;;;;;10.35;7.18;;;20.10;99.90;;;;;;4978185;28;90801;-34
2023/06/07 10:17:07;;;;;;;15.18;7.15;;;20.40;96.90;;;;;;4978439;28;89341;-34
2023/06/07 10:19:46;;;;;;;9.75;5.63;;;20.20;99.50;;;;;;4978516;28;89501;-33
2023/06/07 10:22:25;;;;;;;14.05;6.97;;;20.70;99.90;;;;;;4978095;28;89547;-35
2023/06/07 10:25:12;;;;;;;10.20;6.68;;;20.60;96.00;;;;;;4978058;28;88662;-36
2023/06/07 10:28:01;;;;;;;8.95;6.13;;;20.60;96.50;;;;;;4977969;28;90882;-36
2023/06/07 10:30:30;;;;;;;10.73;6.63;;;20.60;99.00;;;;;;4978196;28;89693;-34
2023/06/07 10:32:58;;;;;;;10.30;5.82;;;20.40;94.70;;;;;;4978083;28;89340;-32
2023/06/07 10:35:24;;;;;;;10.27;6.10;;;20.50;99.90;;;;;;4978312;28;88508;-36
2023/06/07 10:37:53;;;;;;;9.38;5.88;;;20.10;99.90;;;;;;4977097;28;91482;-32
2023/06/07 10:40:21;;;;;;;9.45;5.75;;;20.30;99.90;;;;;;4977802;28;91113;-34
2023/06/07 10:42:47;;;;;;;11.00;6.55;;;20.50;99.90;;;;;;4977535;28;90461;-32
2023/06/07 10:45:17;;;;;;;9.88;5.70;;;20.50;99.90;;;;;;4978355;28;89063;-36
2023/06/07 10:47:43;;;;;;;9.00;6.85;;;20.60;98.80;;;;;;4977603;28;89727;-36
2023/06/07 10:50:30;;;;;;;12.98;6.88;;;20.20;99.90;;;;;;4978128;28;90955;-30
2023/06/07 10:52:56;;;;;;;7.55;5.55;;;20.50;99.90;;;;;;4978701;28;89107;-33
2023/06/07 10:55:26;;;;;;;10.40;6.32;;;20.40;94.60;;;;;;4977375;28;89668;-35
2023/06/07 10:57:53;;;;;;;5.53;5.03;;;20.20;96.70;;;;;;4977548;28;90036;-32
2023/06/07 11:00:30;;;;;;;7.90;5.78;;;20.40;99.90;;;;;;4977912;28;89797;-33
2023/06/07 11:03:04;;;;;;;12.23;6.32;;;20.60;96.90;;;;;;4978334;28;89552;-32
2023/06/07 11:05:52;;;;;;;8.20;4.75;;;20.50;99.90;;;;;;4977142;28;89208;-32
2023/06/07 11:08:26;;;;;;;11.10;7.00;;;20.60;98.20;;;;;;4977294;28;90290;-32
2023/06/07 11:10:58;;;;;;;9.38;5.32;;;20.70;99.90;;;;;;4977530;28;90721;-32
2023/06/07 11:13:25;;;;;;;6.30;5.57;;;20.90;99.90;;;;;;4978132;28;90175;-32
2023/06/07 11:15:50;;;;;;;9.05;5.28;;;20.80;92.80;;;;;;4983555;28;89113;-31
2023/06/07 11:18:16;;;;;;;20.63;7.32;;;20.80;99.90;;;;;;4977473;28;89314;-36
2023/06/07 11:20:44;;;;;;;8.10;6.05;;;20.90;95.50;;;;;;4977352;28;89597;-34
2023/06/07 11:23:22;;;;;;;;;;;20.90;94.30;;;;;;4977762;28;89606;-30
2023/06/07 11:26:10;;;;;;;11.30;5.93;;;20.80;99.90;;;;;;4978525;28;89466;-32
2023/06/07 11:28:38;;;;;;;10.68;6.22;;;20.80;96.60;;;;;;4975637;28;89806;-33
2023/06/07 11:31:08;;;;;;;8.93;6.20;;;20.80;99.20;;;;;;4976776;28;90513;-34
2023/06/07 11:33:34;;;;;;;5.60;4.55;;;20.70;95.50;;;;;;4977349;28;91184;-32
2023/06/07 11:36:03;;;;;;;9.43;5.20;;;20.80;96.60;;;;;;4977809;28;87940;-32
2023/06/07 11:38:29;;;;;;;8.73;5.82;;;20.80;99.90;;;;;;4979833;28;88981;-35
2023/06/07 11:40:56;;;;;;;14.05;5.85;;;20.70;95.50;;;;;;4977791;28;88558;-34
2023/06/07 11:43:24;;;;;;;8.65;5.95;;;20.70;95.80;;;;;;4977310;28;89281;-32
2023/06/07 11:45:53;;;;;;;13.82;5.85;;;20.70;95.70;;;;;;4977345;28;87566;-35
2023/06/07 11:48:19;;;;;;;13.65;6.32;;;21.00;98.30;;;;;;4976687;28;90107;-34
2023/06/07 11:50:44;;;;;;;10.98;6.85;;;21.10;99.90;;;;;;4976521;28;90582;-33
2023/06/07 11:53:10;;;;;;;9.20;5.03;;;20.90;95.00;;;;;;4977510;28;89789;-33
2023/06/07 11:55:39;;;;;;;9.90;5.00;;;20.90;98.10;;;;;;4976671;28;89462;-34
2023/06/07 11:58:08;;;;;;;9.05;6.47;;;21.10;96.90;;;;;;4976849;28;90122;-34
2023/06/07 12:00:36;;;;;;;14.23;5.78;;;21.10;92.00;;;;;;4976511;28;89651;-34
2023/06/07 12:03:04;;;;;;;9.35;5.78;;;21.10;94.50;;;;;;4976390;28;89913;-33
2023/06/07 12:05:31;;;;;;;8.45;5.25;;;20.90;96.50;;;;;;4963827;28;88767;-34
2023/06/07 12:08:16;;;;;;;10.45;6.35;;;20.80;92.20;;;;;;4976973;28;89456;-32
2023/06/07 12:10:45;;;;;;;7.40;5.97;;;20.90;98.50;;;;;;4965663;28;89211;-35
2023/06/07 12:13:16;;;;;;;14.88;5.80;;;21.10;97.70;;;;;;4976451;28;89198;-31
2023/06/07 12:15:42;;;;;;;9.80;5.95;;;21.10;94.20;;;;;;4976959;28;88944;-33
2023/06/07 12:18:13;;;;;;;10.48;6.45;;;21.10;94.60;;;;;;4976516;28;90022;-32
2023/06/07 12:20:41;;;;;;;12.57;6.10;;;21.00;92.20;;;;;;4975100;28;90807;-33
2023/06/07 12:23:07;;;;;;;10.50;5.75;;;21.20;98.20;;;;;;4975023;28;90739;-34
2023/06/07 12:25:34;;;;;;;10.18;5.43;;;21.30;93.10;;;;;;4976299;28;89582;-32
2023/06/07 12:28:11;;;;;;;8.23;6.32;;;21.60;94.00;;;;;;4975616;28;90158;-34
2023/06/07 12:30:38;;;;;;;13.70;6.82;;;21.50;93.20;;;;;;4975889;28;89876;-34
2023/06/07 12:33:04;;;;;;;12.80;6.03;;;21.40;86.40;;;;;;4981264;28;89588;-34
2023/06/07 12:35:38;;;;;;;9.27;6.90;;;21.20;90.20;;;;;;4976620;28;88395;-35
2023/06/07 12:38:05;;;;;;;13.48;6.57;;;21.30;91.40;;;;;;4976215;28;90325;-35
2023/06/07 12:40:30;;;;;;;8.57;6.60;;;21.30;92.20;;;;;;4975791;28;90037;-35
2023/06/07 12:42:56;;;;;;;10.23;6.55;;;21.30;89.80;;;;;;4976204;28;89743;-31
2023/06/07 12:45:22;;;;;;;12.50;7.47;;;21.20;93.20;;;;;;4975401;28;90184;-37